sensor_id;sensor_type;location;lat;lon;timestamp;P1;durP1;ratioP1;P2;durP2;ratioP2
22851;SDS011;11592;45.460;9.240;2023-09-30T00:00:06;33.53;;;19.00;;
22851;SDS011;11592;45.460;9.240;2023-09-30T00:02:35;28.67;;;18.90;;
22851;SDS011;11592;45.460;9.240;2023-09-30T00:05:02;33.33;;;19.20;;
22851;SDS011;11592;45.460;9.240;2023-09-30T00:07:30;30.73;;;17.60;;
22851;SDS011;11592;45.460;9.240;2023-09-30T00:09:57;32.80;;;18.17;;
22851;SDS011;11592;45.460;9.240;2023-09-30T00:12:25;33.83;;;18.35;;
22851;SDS011;11592;45.460;9.240;2023-09-30T00:14:53;29.27;;;18.45;;
22851;SDS011;11592;45.460;9.240;2023-09-30T00:17:20;27.63;;;18.17;;
22851;SDS011;11592;45.460;9.240;2023-09-30T00:19:46;28.30;;;17.42;;
22851;SDS011;11592;45.460;9.240;2023-09-30T00:22:13;26.85;;;17.98;;
22851;SDS011;11592;45.460;9.240;2023-09-30T00:24:40;28.92;;;18.20;;
22851;SDS011;11592;45.460;9.240;2023-09-30T00:27:07;29.60;;;18.15;;
22851;SDS011;11592;45.460;9.240;2023-09-30T00:29:34;24.40;;;17.38;;
22851;SDS011;11592;45.460;9.240;2023-09-30T00:32:01;27.13;;;18.50;;
22851;SDS011;11592;45.460;9.240;2023-09-30T00:34:31;26.33;;;17.45;;
22851;SDS011;11592;45.460;9.240;2023-09-30T00:36:59;30.60;;;17.58;;
22851;SDS011;11592;45.460;9.240;2023-09-30T00:39:26;30.75;;;18.35;;
22851;SDS011;11592;45.460;9.240;2023-09-30T00:41:57;28.92;;;18.30;;
22851;SDS011;11592;45.460;9.240;2023-09-30T00:44:29;30.58;;;17.58;;
22851;SDS011;11592;45.460;9.240;2023-09-30T00:46:57;33.72;;;16.95;;
22851;SDS011;11592;45.460;9.240;2023-09-30T00:49:24;26.65;;;17.70;;
22851;SDS011;11592;45.460;9.240;2023-09-30T00:51:52;28.95;;;18.40;;
22851;SDS011;11592;45.460;9.240;2023-09-30T00:54:21;24.88;;;17.70;;
22851;SDS011;11592;45.460;9.240;2023-09-30T00:56:50;26.65;;;17.48;;
22851;SDS011;11592;45.460;9.240;2023-09-30T00:59:22;28.15;;;17.63;;
22851;SDS011;11592;45.460;9.240;2023-09-30T01:01:51;30.73;;;17.85;;
22851;SDS011;11592;45.460;9.240;2023-09-30T01:04:20;26.90;;;17.67;;
22851;SDS011;11592;45.460;9.240;2023-09-30T01:06:47;29.50;;;16.48;;
22851;SDS011;11592;45.460;9.240;2023-09-30T01:09:14;29.05;;;17.33;;
22851;SDS011;11592;45.460;9.240;2023-09-30T01:11:41;30.02;;;18.00;;
22851;SDS011;11592;45.460;9.240;2023-09-30T01:14:25;24.90;;;17.42;;
22851;SDS011;11592;45.460;9.240;2023-09-30T01:16:53;27.40;;;17.00;;
22851;SDS011;11592;45.460;9.240;2023-09-30T01:19:21;28.33;;;18.55;;
22851;SDS011;11592;45.460;9.240;2023-09-30T01:21:52;23.80;;;16.65;;
22851;SDS011;11592;45.460;9.240;2023-09-30T01:24:28;28.30;;;18.08;;
22851;SDS011;11592;45.460;9.240;2023-09-30T01:26:56;29.05;;;17.98;;
22851;SDS011;11592;45.460;9.240;2023-09-30T01:29:23;29.23;;;17.95;;
22851;SDS011;11592;45.460;9.240;2023-09-30T01:31:52;24.75;;;16.73;;
22851;SDS011;11592;45.460;9.240;2023-09-30T01:34:20;24.50;;;15.75;;
22851;SDS011;11592;45.460;9.240;2023-09-30T01:36:47;22.77;;;16.75;;
22851;SDS011;11592;45.460;9.240;2023-09-30T01:39:13;24.60;;;16.60;;
22851;SDS011;11592;45.460;9.240;2023-09-30T01:41:40;22.75;;;14.82;;
22851;SDS011;11592;45.460;9.240;2023-09-30T01:44:07;26.55;;;16.48;;
22851;SDS011;11592;45.460;9.240;2023-09-30T01:46:35;24.08;;;15.50;;
22851;SDS011;11592;45.460;9.240;2023-09-30T01:49:02;24.35;;;15.85;;
22851;SDS011;11592;45.460;9.240;2023-09-30T01:51:32;23.52;;;15.57;;
22851;SDS011;11592;45.460;9.240;2023-09-30T01:53:59;24.45;;;14.48;;
22851;SDS011;11592;45.460;9.240;2023-09-30T01:56:26;26.15;;;15.75;;
22851;SDS011;11592;45.460;9.240;2023-09-30T01:58:53;23.60;;;15.18;;
22851;SDS011;11592;45.460;9.240;2023-09-30T02:01:20;28.40;;;14.73;;
22851;SDS011;11592;45.460;9.240;2023-09-30T02:03:47;24.85;;;15.20;;
22851;SDS011;11592;45.460;9.240;2023-09-30T02:06:14;21.10;;;15.45;;
22851;SDS011;11592;45.460;9.240;2023-09-30T02:08:41;24.23;;;15.50;;
22851;SDS011;11592;45.460;9.240;2023-09-30T02:11:10;23.60;;;15.80;;
22851;SDS011;11592;45.460;9.240;2023-09-30T02:13:40;24.98;;;15.93;;
22851;SDS011;11592;45.460;9.240;2023-09-30T02:16:12;29.33;;;16.88;;
22851;SDS011;11592;45.460;9.240;2023-09-30T02:18:41;24.88;;;15.35;;
22851;SDS011;11592;45.460;9.240;2023-09-30T02:21:11;26.55;;;16.38;;
22851;SDS011;11592;45.460;9.240;2023-09-30T02:23:38;24.60;;;16.17;;
22851;SDS011;11592;45.460;9.240;2023-09-30T02:26:05;22.92;;;16.20;;
22851;SDS011;11592;45.460;9.240;2023-09-30T02:28:32;24.58;;;16.23;;
22851;SDS011;11592;45.460;9.240;2023-09-30T02:31:00;28.88;;;16.33;;
22851;SDS011;11592;45.460;9.240;2023-09-30T02:33:27;29.02;;;17.48;;
22851;SDS011;11592;45.460;9.240;2023-09-30T02:35:54;25.98;;;15.10;;
22851;SDS011;11592;45.460;9.240;2023-09-30T02:38:21;27.02;;;16.70;;
22851;SDS011;11592;45.460;9.240;2023-09-30T02:40:49;26.30;;;16.85;;
22851;SDS011;11592;45.460;9.240;2023-09-30T02:43:18;23.00;;;16.52;;
22851;SDS011;11592;45.460;9.240;2023-09-30T02:45:44;24.40;;;16.60;;
22851;SDS011;11592;45.460;9.240;2023-09-30T02:48:12;28.40;;;17.08;;
22851;SDS011;11592;45.460;9.240;2023-09-30T02:50:42;22.48;;;16.70;;
22851;SDS011;11592;45.460;9.240;2023-09-30T02:53:12;23.10;;;16.42;;
22851;SDS011;11592;45.460;9.240;2023-09-30T02:55:40;26.02;;;16.77;;
22851;SDS011;11592;45.460;9.240;2023-09-30T02:58:08;26.48;;;16.85;;
22851;SDS011;11592;45.460;9.240;2023-09-30T03:00:35;27.13;;;17.08;;
22851;SDS011;11592;45.460;9.240;2023-09-30T03:03:04;27.08;;;17.42;;
22851;SDS011;11592;45.460;9.240;2023-09-30T03:05:31;31.02;;;17.75;;
22851;SDS011;11592;45.460;9.240;2023-09-30T03:07:59;28.17;;;17.08;;
22851;SDS011;11592;45.460;9.240;2023-09-30T03:10:27;25.90;;;16.98;;
22851;SDS011;11592;45.460;9.240;2023-09-30T03:12:54;25.83;;;17.85;;
22851;SDS011;11592;45.460;9.240;2023-09-30T03:15:21;25.33;;;16.50;;
22851;SDS011;11592;45.460;9.240;2023-09-30T03:17:49;25.88;;;16.48;;
22851;SDS011;11592;45.460;9.240;2023-09-30T03:20:19;24.17;;;16.90;;
22851;SDS011;11592;45.460;9.240;2023-09-30T03:22:46;26.10;;;17.00;;
22851;SDS011;11592;45.460;9.240;2023-09-30T03:25:14;27.50;;;18.17;;
22851;SDS011;11592;45.460;9.240;2023-09-30T03:27:44;26.92;;;17.58;;
22851;SDS011;11592;45.460;9.240;2023-09-30T03:30:15;29.20;;;17.95;;
22851;SDS011;11592;45.460;9.240;2023-09-30T03:32:42;25.58;;;17.48;;
22851;SDS011;11592;45.460;9.240;2023-09-30T03:35:10;25.40;;;17.02;;
22851;SDS011;11592;45.460;9.240;2023-09-30T03:37:41;26.58;;;17.95;;
22851;SDS011;11592;45.460;9.240;2023-09-30T03:40:08;33.38;;;17.48;;
22851;SDS011;11592;45.460;9.240;2023-09-30T03:42:40;24.30;;;18.05;;
22851;SDS011;11592;45.460;9.240;2023-09-30T03:45:11;24.67;;;16.05;;
22851;SDS011;11592;45.460;9.240;2023-09-30T03:47:40;25.70;;;17.23;;
22851;SDS011;11592;45.460;9.240;2023-09-30T03:50:08;25.52;;;17.67;;
22851;SDS011;11592;45.460;9.240;2023-09-30T03:52:42;27.98;;;18.98;;
22851;SDS011;11592;45.460;9.240;2023-09-30T03:55:13;28.85;;;20.40;;
22851;SDS011;11592;45.460;9.240;2023-09-30T03:57:42;29.25;;;18.30;;
22851;SDS011;11592;45.460;9.240;2023-09-30T04:00:09;29.90;;;18.58;;
22851;SDS011;11592;45.460;9.240;2023-09-30T04:02:42;32.55;;;18.00;;
22851;SDS011;11592;45.460;9.240;2023-09-30T04:05:09;26.13;;;17.73;;
22851;SDS011;11592;45.460;9.240;2023-09-30T04:07:38;25.80;;;18.02;;
22851;SDS011;11592;45.460;9.240;2023-09-30T04:10:05;30.48;;;19.27;;
22851;SDS011;11592;45.460;9.240;2023-09-30T04:12:32;29.80;;;18.67;;
22851;SDS011;11592;45.460;9.240;2023-09-30T04:15:00;27.95;;;18.50;;
22851;SDS011;11592;45.460;9.240;2023-09-30T04:17:27;29.58;;;18.65;;
22851;SDS011;11592;45.460;9.240;2023-09-30T04:19:54;26.60;;;17.67;;
22851;SDS011;11592;45.460;9.240;2023-09-30T04:22:20;23.58;;;17.27;;
22851;SDS011;11592;45.460;9.240;2023-09-30T04:24:47;30.10;;;18.77;;
22851;SDS011;11592;45.460;9.240;2023-09-30T04:27:19;25.73;;;18.23;;
22851;SDS011;11592;45.460;9.240;2023-09-30T04:29:48;28.15;;;19.48;;
22851;SDS011;11592;45.460;9.240;2023-09-30T04:32:16;33.92;;;18.42;;
22851;SDS011;11592;45.460;9.240;2023-09-30T04:34:43;30.95;;;19.15;;
22851;SDS011;11592;45.460;9.240;2023-09-30T04:37:12;28.65;;;18.77;;
22851;SDS011;11592;45.460;9.240;2023-09-30T04:39:40;31.65;;;18.75;;
22851;SDS011;11592;45.460;9.240;2023-09-30T04:42:07;29.27;;;18.27;;
22851;SDS011;11592;45.460;9.240;2023-09-30T04:44:38;30.15;;;20.25;;
22851;SDS011;11592;45.460;9.240;2023-09-30T04:47:05;29.52;;;19.73;;
22851;SDS011;11592;45.460;9.240;2023-09-30T04:49:31;31.98;;;20.17;;
22851;SDS011;11592;45.460;9.240;2023-09-30T04:51:58;27.63;;;19.10;;
22851;SDS011;11592;45.460;9.240;2023-09-30T04:54:25;29.02;;;19.45;;
22851;SDS011;11592;45.460;9.240;2023-09-30T04:56:52;27.67;;;19.52;;
22851;SDS011;11592;45.460;9.240;2023-09-30T04:59:19;29.83;;;19.48;;
22851;SDS011;11592;45.460;9.240;2023-09-30T05:01:45;32.30;;;21.17;;
22851;SDS011;11592;45.460;9.240;2023-09-30T05:04:12;26.73;;;18.95;;
22851;SDS011;11592;45.460;9.240;2023-09-30T05:06:39;27.88;;;18.95;;
22851;SDS011;11592;45.460;9.240;2023-09-30T05:09:06;31.42;;;19.25;;
22851;SDS011;11592;45.460;9.240;2023-09-30T05:11:34;32.88;;;20.05;;
22851;SDS011;11592;45.460;9.240;2023-09-30T05:14:01;28.42;;;19.13;;
22851;SDS011;11592;45.460;9.240;2023-09-30T05:16:31;28.38;;;19.80;;
22851;SDS011;11592;45.460;9.240;2023-09-30T05:18:58;30.70;;;20.40;;
22851;SDS011;11592;45.460;9.240;2023-09-30T05:21:25;29.17;;;19.85;;
22851;SDS011;11592;45.460;9.240;2023-09-30T05:23:53;30.73;;;19.83;;
22851;SDS011;11592;45.460;9.240;2023-09-30T05:26:19;34.47;;;20.48;;
22851;SDS011;11592;45.460;9.240;2023-09-30T05:28:46;31.15;;;21.13;;
22851;SDS011;11592;45.460;9.240;2023-09-30T05:31:13;31.70;;;20.60;;
22851;SDS011;11592;45.460;9.240;2023-09-30T05:33:40;33.40;;;20.65;;
22851;SDS011;11592;45.460;9.240;2023-09-30T05:36:07;31.23;;;20.55;;
22851;SDS011;11592;45.460;9.240;2023-09-30T05:38:35;32.05;;;20.35;;
22851;SDS011;11592;45.460;9.240;2023-09-30T05:41:01;27.55;;;19.63;;
22851;SDS011;11592;45.460;9.240;2023-09-30T05:43:28;30.77;;;20.95;;
22851;SDS011;11592;45.460;9.240;2023-09-30T05:45:56;33.55;;;20.05;;
22851;SDS011;11592;45.460;9.240;2023-09-30T05:48:27;35.03;;;19.98;;
22851;SDS011;11592;45.460;9.240;2023-09-30T05:50:54;35.35;;;21.55;;
22851;SDS011;11592;45.460;9.240;2023-09-30T05:53:21;30.95;;;20.65;;
22851;SDS011;11592;45.460;9.240;2023-09-30T05:55:49;33.10;;;20.45;;
22851;SDS011;11592;45.460;9.240;2023-09-30T05:58:17;29.48;;;19.95;;
22851;SDS011;11592;45.460;9.240;2023-09-30T06:00:43;33.85;;;20.60;;
22851;SDS011;11592;45.460;9.240;2023-09-30T06:03:11;31.33;;;19.80;;
22851;SDS011;11592;45.460;9.240;2023-09-30T06:05:41;32.17;;;20.42;;
22851;SDS011;11592;45.460;9.240;2023-09-30T06:08:08;30.48;;;20.30;;
22851;SDS011;11592;45.460;9.240;2023-09-30T06:10:40;33.67;;;21.52;;
22851;SDS011;11592;45.460;9.240;2023-09-30T06:13:11;38.72;;;23.15;;
22851;SDS011;11592;45.460;9.240;2023-09-30T06:15:41;41.60;;;22.52;;
22851;SDS011;11592;45.460;9.240;2023-09-30T06:18:10;41.47;;;22.67;;
22851;SDS011;11592;45.460;9.240;2023-09-30T06:20:40;39.38;;;25.40;;
22851;SDS011;11592;45.460;9.240;2023-09-30T06:23:07;37.40;;;23.73;;
22851;SDS011;11592;45.460;9.240;2023-09-30T06:25:36;36.28;;;25.77;;
22851;SDS011;11592;45.460;9.240;2023-09-30T06:28:03;37.90;;;26.00;;
22851;SDS011;11592;45.460;9.240;2023-09-30T06:30:30;38.13;;;23.77;;
22851;SDS011;11592;45.460;9.240;2023-09-30T06:32:59;41.10;;;26.25;;
22851;SDS011;11592;45.460;9.240;2023-09-30T06:35:28;40.10;;;25.80;;
22851;SDS011;11592;45.460;9.240;2023-09-30T06:38:03;43.53;;;24.80;;
22851;SDS011;11592;45.460;9.240;2023-09-30T06:40:32;36.65;;;25.25;;
22851;SDS011;11592;45.460;9.240;2023-09-30T06:43:04;35.50;;;23.75;;
22851;SDS011;11592;45.460;9.240;2023-09-30T06:45:31;37.70;;;24.77;;
22851;SDS011;11592;45.460;9.240;2023-09-30T06:47:59;40.40;;;26.17;;
22851;SDS011;11592;45.460;9.240;2023-09-30T06:50:26;45.85;;;27.77;;
22851;SDS011;11592;45.460;9.240;2023-09-30T06:52:53;46.75;;;29.17;;
22851;SDS011;11592;45.460;9.240;2023-09-30T06:55:19;49.80;;;30.00;;
22851;SDS011;11592;45.460;9.240;2023-09-30T06:57:46;47.50;;;30.33;;
22851;SDS011;11592;45.460;9.240;2023-09-30T07:00:13;44.40;;;28.02;;
22851;SDS011;11592;45.460;9.240;2023-09-30T07:02:41;43.60;;;27.75;;
22851;SDS011;11592;45.460;9.240;2023-09-30T07:05:09;43.85;;;28.10;;
22851;SDS011;11592;45.460;9.240;2023-09-30T07:07:37;44.38;;;27.23;;
22851;SDS011;11592;45.460;9.240;2023-09-30T07:10:05;49.67;;;29.77;;
22851;SDS011;11592;45.460;9.240;2023-09-30T07:12:33;45.70;;;29.10;;
22851;SDS011;11592;45.460;9.240;2023-09-30T07:15:03;49.63;;;30.25;;
22851;SDS011;11592;45.460;9.240;2023-09-30T07:17:33;49.10;;;30.73;;
22851;SDS011;11592;45.460;9.240;2023-09-30T07:20:01;51.08;;;31.55;;
22851;SDS011;11592;45.460;9.240;2023-09-30T07:22:28;55.47;;;33.28;;
22851;SDS011;11592;45.460;9.240;2023-09-30T07:24:58;46.08;;;30.05;;
22851;SDS011;11592;45.460;9.240;2023-09-30T07:27:25;51.30;;;31.00;;
22851;SDS011;11592;45.460;9.240;2023-09-30T07:29:53;46.17;;;30.02;;
22851;SDS011;11592;45.460;9.240;2023-09-30T07:32:20;44.45;;;28.80;;
22851;SDS011;11592;45.460;9.240;2023-09-30T07:34:50;49.03;;;30.50;;
22851;SDS011;11592;45.460;9.240;2023-09-30T07:37:18;50.40;;;29.70;;
22851;SDS011;11592;45.460;9.240;2023-09-30T07:39:46;53.92;;;30.70;;
22851;SDS011;11592;45.460;9.240;2023-09-30T07:42:13;51.55;;;30.30;;
22851;SDS011;11592;45.460;9.240;2023-09-30T07:44:40;43.17;;;28.05;;
22851;SDS011;11592;45.460;9.240;2023-09-30T07:47:07;45.00;;;28.25;;
22851;SDS011;11592;45.460;9.240;2023-09-30T07:49:35;51.15;;;31.05;;
22851;SDS011;11592;45.460;9.240;2023-09-30T07:52:04;46.17;;;29.83;;
22851;SDS011;11592;45.460;9.240;2023-09-30T07:54:30;46.05;;;29.45;;
22851;SDS011;11592;45.460;9.240;2023-09-30T07:56:57;45.50;;;30.48;;
22851;SDS011;11592;45.460;9.240;2023-09-30T07:59:26;45.95;;;28.85;;
22851;SDS011;11592;45.460;9.240;2023-09-30T08:01:53;49.28;;;31.50;;
22851;SDS011;11592;45.460;9.240;2023-09-30T08:04:20;45.42;;;28.70;;
22851;SDS011;11592;45.460;9.240;2023-09-30T08:06:48;43.95;;;27.83;;
22851;SDS011;11592;45.460;9.240;2023-09-30T08:09:15;52.00;;;30.38;;
22851;SDS011;11592;45.460;9.240;2023-09-30T08:11:44;56.75;;;32.70;;
22851;SDS011;11592;45.460;9.240;2023-09-30T08:14:11;47.33;;;29.73;;
22851;SDS011;11592;45.460;9.240;2023-09-30T08:16:38;44.65;;;29.17;;
22851;SDS011;11592;45.460;9.240;2023-09-30T08:19:05;44.03;;;29.65;;
22851;SDS011;11592;45.460;9.240;2023-09-30T08:21:32;51.58;;;32.17;;
22851;SDS011;11592;45.460;9.240;2023-09-30T08:23:59;49.08;;;30.27;;
22851;SDS011;11592;45.460;9.240;2023-09-30T08:26:26;48.55;;;32.15;;
22851;SDS011;11592;45.460;9.240;2023-09-30T08:28:53;50.08;;;32.95;;
22851;SDS011;11592;45.460;9.240;2023-09-30T08:31:20;52.35;;;32.08;;
22851;SDS011;11592;45.460;9.240;2023-09-30T08:33:48;46.58;;;31.10;;
22851;SDS011;11592;45.460;9.240;2023-09-30T08:36:15;47.38;;;29.88;;
22851;SDS011;11592;45.460;9.240;2023-09-30T08:38:41;50.85;;;32.97;;
22851;SDS011;11592;45.460;9.240;2023-09-30T08:41:10;46.13;;;29.83;;
22851;SDS011;11592;45.460;9.240;2023-09-30T08:43:37;45.88;;;28.33;;
22851;SDS011;11592;45.460;9.240;2023-09-30T08:46:06;41.75;;;27.48;;
22851;SDS011;11592;45.460;9.240;2023-09-30T08:48:33;42.63;;;27.67;;
22851;SDS011;11592;45.460;9.240;2023-09-30T08:51:01;39.35;;;26.30;;
22851;SDS011;11592;45.460;9.240;2023-09-30T08:53:29;44.25;;;27.23;;
22851;SDS011;11592;45.460;9.240;2023-09-30T08:55:56;47.10;;;28.33;;
22851;SDS011;11592;45.460;9.240;2023-09-30T08:58:26;44.35;;;26.20;;
22851;SDS011;11592;45.460;9.240;2023-09-30T09:00:55;51.90;;;32.08;;
22851;SDS011;11592;45.460;9.240;2023-09-30T09:03:22;55.55;;;30.90;;
22851;SDS011;11592;45.460;9.240;2023-09-30T09:05:53;61.67;;;35.10;;
22851;SDS011;11592;45.460;9.240;2023-09-30T09:08:24;46.63;;;27.17;;
22851;SDS011;11592;45.460;9.240;2023-09-30T09:10:59;38.22;;;24.35;;
22851;SDS011;11592;45.460;9.240;2023-09-30T09:13:27;40.87;;;25.53;;
22851;SDS011;11592;45.460;9.240;2023-09-30T09:16:07;43.00;;;25.15;;
22851;SDS011;11592;45.460;9.240;2023-09-30T09:18:37;37.95;;;26.42;;
22851;SDS011;11592;45.460;9.240;2023-09-30T09:21:10;34.83;;;23.40;;
22851;SDS011;11592;45.460;9.240;2023-09-30T09:23:42;40.75;;;23.05;;
22851;SDS011;11592;45.460;9.240;2023-09-30T09:26:11;40.30;;;25.17;;
22851;SDS011;11592;45.460;9.240;2023-09-30T09:28:43;41.72;;;25.25;;
22851;SDS011;11592;45.460;9.240;2023-09-30T09:31:19;44.40;;;25.40;;
22851;SDS011;11592;45.460;9.240;2023-09-30T09:33:50;35.67;;;22.92;;
22851;SDS011;11592;45.460;9.240;2023-09-30T09:36:18;39.22;;;22.92;;
22851;SDS011;11592;45.460;9.240;2023-09-30T09:38:49;32.05;;;22.15;;
22851;SDS011;11592;45.460;9.240;2023-09-30T09:41:19;29.73;;;18.80;;
22851;SDS011;11592;45.460;9.240;2023-09-30T09:43:50;35.13;;;22.63;;
22851;SDS011;11592;45.460;9.240;2023-09-30T09:46:19;40.50;;;24.63;;
22851;SDS011;11592;45.460;9.240;2023-09-30T09:48:46;44.25;;;24.08;;
22851;SDS011;11592;45.460;9.240;2023-09-30T09:51:16;37.20;;;20.45;;
22851;SDS011;11592;45.460;9.240;2023-09-30T09:53:43;35.40;;;20.55;;
22851;SDS011;11592;45.460;9.240;2023-09-30T09:56:10;39.17;;;22.45;;
22851;SDS011;11592;45.460;9.240;2023-09-30T09:58:39;33.00;;;22.02;;
22851;SDS011;11592;45.460;9.240;2023-09-30T10:01:09;30.30;;;19.63;;
22851;SDS011;11592;45.460;9.240;2023-09-30T10:03:37;31.67;;;20.52;;
22851;SDS011;11592;45.460;9.240;2023-09-30T10:06:05;36.45;;;20.30;;
22851;SDS011;11592;45.460;9.240;2023-09-30T10:08:36;51.65;;;25.73;;
22851;SDS011;11592;45.460;9.240;2023-09-30T10:11:06;37.10;;;22.33;;
22851;SDS011;11592;45.460;9.240;2023-09-30T10:19:13;30.20;;;20.20;;
22851;SDS011;11592;45.460;9.240;2023-09-30T10:24:42;43.10;;;25.10;;
22851;SDS011;11592;45.460;9.240;2023-09-30T10:29:57;34.33;;;21.25;;
22851;SDS011;11592;45.460;9.240;2023-09-30T10:38:39;30.30;;;18.88;;
22851;SDS011;11592;45.460;9.240;2023-09-30T10:40:57;31.77;;;18.95;;
22851;SDS011;11592;45.460;9.240;2023-09-30T10:45:59;29.58;;;18.65;;
22851;SDS011;11592;45.460;9.240;2023-09-30T10:51:15;33.03;;;19.83;;
22851;SDS011;11592;45.460;9.240;2023-09-30T10:53:49;26.20;;;17.88;;
22851;SDS011;11592;45.460;9.240;2023-09-30T10:56:23;25.00;;;16.73;;
22851;SDS011;11592;45.460;9.240;2023-09-30T10:58:57;24.50;;;17.02;;
22851;SDS011;11592;45.460;9.240;2023-09-30T11:01:24;31.08;;;16.83;;
22851;SDS011;11592;45.460;9.240;2023-09-30T11:03:58;23.80;;;14.10;;
22851;SDS011;11592;45.460;9.240;2023-09-30T11:06:30;29.02;;;18.08;;
22851;SDS011;11592;45.460;9.240;2023-09-30T11:08:58;26.60;;;16.88;;
22851;SDS011;11592;45.460;9.240;2023-09-30T11:11:36;24.13;;;15.32;;
22851;SDS011;11592;45.460;9.240;2023-09-30T11:14:15;35.00;;;16.90;;
22851;SDS011;11592;45.460;9.240;2023-09-30T11:16:58;25.17;;;16.60;;
22851;SDS011;11592;45.460;9.240;2023-09-30T11:19:36;26.45;;;18.38;;
22851;SDS011;11592;45.460;9.240;2023-09-30T11:22:12;37.53;;;20.08;;
22851;SDS011;11592;45.460;9.240;2023-09-30T11:24:40;30.73;;;18.02;;
22851;SDS011;11592;45.460;9.240;2023-09-30T11:27:08;28.30;;;19.70;;
22851;SDS011;11592;45.460;9.240;2023-09-30T11:29:35;28.75;;;18.60;;
22851;SDS011;11592;45.460;9.240;2023-09-30T11:32:02;32.30;;;20.58;;
22851;SDS011;11592;45.460;9.240;2023-09-30T11:34:36;30.23;;;19.05;;
22851;SDS011;11592;45.460;9.240;2023-09-30T11:37:04;31.35;;;19.52;;
22851;SDS011;11592;45.460;9.240;2023-09-30T11:39:32;31.63;;;18.40;;
22851;SDS011;11592;45.460;9.240;2023-09-30T11:41:59;29.23;;;14.55;;
22851;SDS011;11592;45.460;9.240;2023-09-30T11:44:27;27.88;;;17.67;;
22851;SDS011;11592;45.460;9.240;2023-09-30T11:46:58;30.45;;;18.10;;
22851;SDS011;11592;45.460;9.240;2023-09-30T11:49:31;25.75;;;18.90;;
22851;SDS011;11592;45.460;9.240;2023-09-30T11:52:02;22.40;;;15.85;;
22851;SDS011;11592;45.460;9.240;2023-09-30T11:54:30;26.83;;;15.55;;
22851;SDS011;11592;45.460;9.240;2023-09-30T11:56:59;23.58;;;14.85;;
22851;SDS011;11592;45.460;9.240;2023-09-30T11:59:27;23.35;;;14.38;;
22851;SDS011;11592;45.460;9.240;2023-09-30T12:01:54;19.65;;;14.23;;
22851;SDS011;11592;45.460;9.240;2023-09-30T12:04:38;22.13;;;13.23;;
22851;SDS011;11592;45.460;9.240;2023-09-30T12:07:05;25.17;;;14.07;;
22851;SDS011;11592;45.460;9.240;2023-09-30T12:09:33;20.38;;;11.98;;
22851;SDS011;11592;45.460;9.240;2023-09-30T12:12:03;22.95;;;13.45;;
22851;SDS011;11592;45.460;9.240;2023-09-30T12:14:31;21.10;;;15.48;;
22851;SDS011;11592;45.460;9.240;2023-09-30T12:16:58;24.92;;;18.45;;
22851;SDS011;11592;45.460;9.240;2023-09-30T12:19:25;24.08;;;15.25;;
22851;SDS011;11592;45.460;9.240;2023-09-30T12:21:53;21.98;;;14.77;;
22851;SDS011;11592;45.460;9.240;2023-09-30T12:24:20;22.90;;;16.95;;
22851;SDS011;11592;45.460;9.240;2023-09-30T12:26:48;34.67;;;17.83;;
22851;SDS011;11592;45.460;9.240;2023-09-30T12:29:16;30.85;;;16.13;;
22851;SDS011;11592;45.460;9.240;2023-09-30T12:31:44;18.92;;;12.02;;
22851;SDS011;11592;45.460;9.240;2023-09-30T12:34:19;20.08;;;12.82;;
22851;SDS011;11592;45.460;9.240;2023-09-30T12:36:45;26.75;;;16.02;;
22851;SDS011;11592;45.460;9.240;2023-09-30T12:39:14;26.65;;;17.45;;
22851;SDS011;11592;45.460;9.240;2023-09-30T12:41:43;18.92;;;14.00;;
22851;SDS011;11592;45.460;9.240;2023-09-30T12:44:12;18.00;;;15.20;;
22851;SDS011;11592;45.460;9.240;2023-09-30T12:46:39;21.65;;;13.50;;
22851;SDS011;11592;45.460;9.240;2023-09-30T12:49:07;21.13;;;12.70;;
22851;SDS011;11592;45.460;9.240;2023-09-30T12:51:34;24.25;;;14.45;;
22851;SDS011;11592;45.460;9.240;2023-09-30T12:54:02;19.05;;;13.65;;
22851;SDS011;11592;45.460;9.240;2023-09-30T12:56:30;18.10;;;12.07;;
22851;SDS011;11592;45.460;9.240;2023-09-30T12:58:58;23.67;;;14.15;;
22851;SDS011;11592;45.460;9.240;2023-09-30T13:01:25;18.23;;;12.88;;
22851;SDS011;11592;45.460;9.240;2023-09-30T13:03:55;20.25;;;13.50;;
22851;SDS011;11592;45.460;9.240;2023-09-30T13:06:22;18.92;;;11.35;;
22851;SDS011;11592;45.460;9.240;2023-09-30T13:08:49;21.05;;;12.48;;
22851;SDS011;11592;45.460;9.240;2023-09-30T13:11:16;16.67;;;11.77;;
22851;SDS011;11592;45.460;9.240;2023-09-30T13:13:43;16.17;;;10.80;;
22851;SDS011;11592;45.460;9.240;2023-09-30T13:16:11;15.30;;;10.27;;
22851;SDS011;11592;45.460;9.240;2023-09-30T13:18:39;15.90;;;9.80;;
22851;SDS011;11592;45.460;9.240;2023-09-30T13:21:06;17.55;;;10.23;;
22851;SDS011;11592;45.460;9.240;2023-09-30T13:23:33;16.90;;;10.15;;
22851;SDS011;11592;45.460;9.240;2023-09-30T13:26:01;19.48;;;13.13;;
22851;SDS011;11592;45.460;9.240;2023-09-30T13:28:28;20.08;;;12.52;;
22851;SDS011;11592;45.460;9.240;2023-09-30T13:30:55;19.63;;;12.88;;
22851;SDS011;11592;45.460;9.240;2023-09-30T13:33:23;17.15;;;11.18;;
22851;SDS011;11592;45.460;9.240;2023-09-30T13:35:50;20.55;;;10.68;;
22851;SDS011;11592;45.460;9.240;2023-09-30T13:38:17;15.73;;;10.57;;
22851;SDS011;11592;45.460;9.240;2023-09-30T13:40:44;19.15;;;11.13;;
22851;SDS011;11592;45.460;9.240;2023-09-30T13:43:12;23.25;;;12.15;;
22851;SDS011;11592;45.460;9.240;2023-09-30T13:45:39;13.48;;;8.20;;
22851;SDS011;11592;45.460;9.240;2023-09-30T13:48:06;14.27;;;8.13;;
22851;SDS011;11592;45.460;9.240;2023-09-30T13:50:34;15.23;;;9.52;;
22851;SDS011;11592;45.460;9.240;2023-09-30T13:53:01;21.08;;;11.80;;
22851;SDS011;11592;45.460;9.240;2023-09-30T13:55:29;24.60;;;11.85;;
22851;SDS011;11592;45.460;9.240;2023-09-30T13:57:56;21.17;;;12.23;;
22851;SDS011;11592;45.460;9.240;2023-09-30T14:00:23;13.25;;;9.45;;
22851;SDS011;11592;45.460;9.240;2023-09-30T14:02:50;19.60;;;10.68;;
22851;SDS011;11592;45.460;9.240;2023-09-30T14:05:18;17.13;;;10.55;;
22851;SDS011;11592;45.460;9.240;2023-09-30T14:07:45;15.18;;;10.23;;
22851;SDS011;11592;45.460;9.240;2023-09-30T14:10:12;19.70;;;12.70;;
22851;SDS011;11592;45.460;9.240;2023-09-30T14:12:39;17.52;;;10.68;;
22851;SDS011;11592;45.460;9.240;2023-09-30T14:15:07;15.75;;;10.18;;
22851;SDS011;11592;45.460;9.240;2023-09-30T14:17:34;21.63;;;10.88;;
22851;SDS011;11592;45.460;9.240;2023-09-30T14:20:02;26.02;;;13.20;;
22851;SDS011;11592;45.460;9.240;2023-09-30T14:22:32;13.90;;;8.73;;
22851;SDS011;11592;45.460;9.240;2023-09-30T14:24:59;18.98;;;11.13;;
22851;SDS011;11592;45.460;9.240;2023-09-30T14:27:26;18.85;;;12.38;;
22851;SDS011;11592;45.460;9.240;2023-09-30T14:29:53;20.83;;;10.40;;
22851;SDS011;11592;45.460;9.240;2023-09-30T14:32:20;22.48;;;11.90;;
22851;SDS011;11592;45.460;9.240;2023-09-30T14:34:47;17.08;;;10.77;;
22851;SDS011;11592;45.460;9.240;2023-09-30T14:37:14;17.85;;;10.57;;
22851;SDS011;11592;45.460;9.240;2023-09-30T14:39:40;20.38;;;12.65;;
22851;SDS011;11592;45.460;9.240;2023-09-30T14:42:08;19.02;;;10.75;;
22851;SDS011;11592;45.460;9.240;2023-09-30T14:44:34;19.48;;;12.02;;
22851;SDS011;11592;45.460;9.240;2023-09-30T14:47:01;18.60;;;10.73;;
22851;SDS011;11592;45.460;9.240;2023-09-30T14:49:30;16.95;;;10.80;;